Time;durP1;ratioP1;P1;durP2;ratioP2;P2;SDS_P1;SDS_P2;PMS_P1;PMS_P2;Temp;Humidity;BMP_temperature;BMP_pressure;BME280_temperature;BME280_humidity;BME280_pressure;Samples;Min_cycle;Max_cycle;Signal;HPM_P1;HPM_P2
2021/05/07 00:01:10;;;;;;;2.33;1.00;;;9.60;89.20;;;;;;5111546;28;20183;-74
2021/05/07 00:03:37;;;;;;;2.10;0.87;;;9.60;89.70;;;;;;5111725;28;20730;-73
2021/05/07 00:06:04;;;;;;;2.20;0.90;;;9.60;89.60;;;;;;5111112;28;20428;-73
2021/05/07 00:08:35;;;;;;;2.70;0.90;;;9.50;89.30;;;;;;5111669;28;20424;-72
2021/05/07 00:11:18;;;;;;;2.17;1.00;;;9.50;89.50;;;;;;5118755;28;20455;-70
2021/05/07 00:13:45;;;;;;;2.80;1.10;;;9.50;89.00;;;;;;5132210;28;20444;-72
2021/05/07 00:16:11;;;;;;;2.70;1.30;;;9.50;89.60;;;;;;5116962;28;20420;-72
2021/05/07 00:18:39;;;;;;;2.10;1.03;;;9.40;89.70;;;;;;5100829;28;20476;-76
2021/05/07 00:21:06;;;;;;;2.07;0.93;;;9.40;90.00;;;;;;5109702;28;20436;-75
2021/05/07 00:23:32;;;;;;;3.07;1.37;;;9.40;90.10;;;;;;5110344;28;20797;-74
2021/05/07 00:25:58;;;;;;;2.40;1.10;;;9.50;90.00;;;;;;5105926;28;20543;-75
2021/05/07 00:28:24;;;;;;;3.17;1.43;;;9.40;89.90;;;;;;5102946;28;21141;-73
2021/05/07 00:30:50;;;;;;;2.73;1.17;;;9.40;90.00;;;;;;5097609;28;20507;-75
2021/05/07 00:33:16;;;;;;;3.03;1.30;;;9.40;90.00;;;;;;5110187;28;20214;-74
2021/05/07 00:35:42;;;;;;;2.60;1.00;;;9.40;90.30;;;;;;5111579;28;20186;-75
2021/05/07 00:38:08;;;;;;;2.30;1.00;;;9.40;90.00;;;;;;5110372;28;20470;-75
2021/05/07 00:40:36;;;;;;;2.10;0.93;;;9.50;89.30;;;;;;5110953;28;20556;-74
2021/05/07 00:43:02;;;;;;;2.73;1.10;;;9.50;89.00;;;;;;5111248;28;20447;-73
2021/05/07 00:45:28;;;;;;;2.23;1.00;;;9.50;89.00;;;;;;5091476;28;20819;-75
2021/05/07 00:48:11;;;;;;;2.80;1.07;;;9.40;89.30;;;;;;5090614;28;20453;-74
2021/05/07 00:50:39;;;;;;;2.10;1.00;;;9.50;89.30;;;;;;5097900;28;20456;-73
2021/05/07 00:53:05;;;;;;;2.57;0.90;;;9.60;89.00;;;;;;5110830;28;20745;-74
2021/05/07 00:55:32;;;;;;;2.63;0.87;;;9.50;88.30;;;;;;5110839;27;20426;-75
2021/05/07 00:57:58;;;;;;;1.73;0.80;;;9.50;88.60;;;;;;5110777;28;20811;-73
2021/05/07 01:00:25;;;;;;;1.87;0.80;;;9.50;88.00;;;;;;5105067;28;20429;-73
2021/05/07 01:02:51;;;;;;;2.00;1.00;;;9.40;88.00;;;;;;5104481;28;20725;-75
2021/05/07 01:05:18;;;;;;;3.90;1.10;;;9.40;88.10;;;;;;5092365;28;20417;-73
2021/05/07 01:07:44;;;;;;;2.13;1.00;;;9.40;88.30;;;;;;5100190;28;20433;-72
2021/05/07 01:10:12;;;;;;;2.73;1.20;;;9.30;88.40;;;;;;5115039;28;20429;-73
2021/05/07 01:12:40;;;;;;;2.00;1.00;;;9.30;88.60;;;;;;5099921;28;20449;-74
2021/05/07 01:15:10;;;;;;;3.20;1.20;;;9.40;88.90;;;;;;5113461;28;20436;-75
2021/05/07 01:17:40;;;;;;;2.60;0.97;;;9.40;88.60;;;;;;5106159;28;20586;-74
2021/05/07 01:20:14;;;;;;;1.70;0.70;;;9.40;87.80;;;;;;5095805;28;20435;-74
2021/05/07 01:22:45;;;;;;;1.80;0.90;;;9.30;86.90;;;;;;5110110;28;20938;-71
2021/05/07 01:25:12;;;;;;;1.60;0.80;;;9.40;86.60;;;;;;5092664;28;20413;-72
2021/05/07 01:27:41;;;;;;;1.60;0.80;;;9.20;85.70;;;;;;5108244;28;20515;-75
2021/05/07 01:30:12;;;;;;;2.27;1.00;;;9.00;85.70;;;;;;5110724;28;20455;-74
2021/05/07 01:32:38;;;;;;;2.30;1.10;;;8.90;86.50;;;;;;5108844;28;20484;-73
2021/05/07 01:35:12;;;;;;;2.47;1.17;;;8.80;86.80;;;;;;5102413;28;20460;-75
2021/05/07 01:37:38;;;;;;;1.83;0.80;;;8.80;87.80;;;;;;5105050;28;20461;-75
2021/05/07 01:40:15;;;;;;;1.70;0.90;;;8.80;86.90;;;;;;5092252;28;20463;-75
2021/05/07 01:42:41;;;;;;;2.03;1.10;;;8.70;87.40;;;;;;5102136;28;20228;-74
2021/05/07 01:45:08;;;;;;;2.00;0.90;;;8.60;88.10;;;;;;5103513;28;20955;-73
2021/05/07 01:47:35;;;;;;;2.47;1.03;;;8.70;87.80;;;;;;5089471;28;20421;-73
2021/05/07 01:50:01;;;;;;;4.23;1.87;;;8.70;87.80;;;;;;5087292;28;20516;-74
2021/05/07 01:52:27;;;;;;;2.63;1.27;;;8.70;88.10;;;;;;5089107;28;20448;-73
2021/05/07 01:54:52;;;;;;;2.60;1.03;;;8.60;89.20;;;;;;5105589;28;20435;-74
2021/05/07 01:57:18;;;;;;;3.80;1.27;;;8.40;89.30;;;;;;5109262;28;20214;-73
2021/05/07 01:59:44;;;;;;;2.47;1.53;;;8.30;90.40;;;;;;5109141;28;20207;-71
2021/05/07 02:02:09;;;;;;;2.10;0.90;;;8.30;90.70;;;;;;5109264;28;20301;-73
2021/05/07 02:04:35;;;;;;;2.20;1.00;;;8.20;91.10;;;;;;5109142;28;20431;-74
2021/05/07 02:07:01;;;;;;;2.47;1.10;;;8.20;91.70;;;;;;5109217;28;20270;-73
2021/05/07 02:09:27;;;;;;;2.43;1.10;;;8.30;91.60;;;;;;5109346;28;20194;-75
2021/05/07 02:11:53;;;;;;;3.20;1.30;;;8.30;91.60;;;;;;5109367;28;20717;-74
2021/05/07 02:14:18;;;;;;;2.40;0.90;;;8.10;91.90;;;;;;5109147;28;20190;-72
2021/05/07 02:16:44;;;;;;;2.53;1.10;;;8.30;92.30;;;;;;5110802;28;20625;-73
2021/05/07 02:19:10;;;;;;;2.73;1.13;;;8.20;92.10;;;;;;5119017;28;20262;-71
2021/05/07 02:21:35;;;;;;;2.50;1.00;;;8.20;92.60;;;;;;5117422;28;20189;-74
2021/05/07 02:24:01;;;;;;;3.43;1.10;;;8.20;92.80;;;;;;5116570;28;20559;-74
2021/05/07 02:26:27;;;;;;;2.97;1.20;;;8.20;93.00;;;;;;5109771;28;20409;-73
2021/05/07 02:28:54;;;;;;;3.63;1.30;;;8.30;93.30;;;;;;5109297;28;20690;-72
2021/05/07 02:31:19;;;;;;;4.40;1.40;;;8.30;93.00;;;;;;5109857;28;20319;-73
2021/05/07 02:33:45;;;;;;;3.03;1.10;;;8.20;93.00;;;;;;5109270;28;20547;-73
2021/05/07 02:36:11;;;;;;;3.40;1.20;;;8.30;92.90;;;;;;5111738;28;20654;-73
2021/05/07 02:38:38;;;;;;;2.67;1.20;;;8.30;92.90;;;;;;5114449;28;20326;-73
2021/05/07 02:41:04;;;;;;;3.43;1.40;;;8.20;92.70;;;;;;5109462;28;20189;-74
2021/05/07 02:43:30;;;;;;;3.17;1.10;;;8.20;93.10;;;;;;5109139;28;20436;-74
2021/05/07 02:45:56;;;;;;;2.93;1.27;;;8.20;93.00;;;;;;5108659;28;20191;-72
2021/05/07 02:48:22;;;;;;;4.03;1.20;;;8.20;93.00;;;;;;5107650;28;20442;-74
2021/05/07 02:50:47;;;;;;;2.70;1.30;;;8.20;92.90;;;;;;5109205;28;20190;-74
2021/05/07 02:53:13;;;;;;;2.60;1.17;;;8.20;92.90;;;;;;5108147;28;20444;-74
2021/05/07 02:55:39;;;;;;;3.03;1.20;;;8.20;93.10;;;;;;5108551;28;20220;-71
2021/05/07 02:58:05;;;;;;;3.53;1.47;;;8.20;92.90;;;;;;5109288;28;20300;-73
2021/05/07 03:00:31;;;;;;;3.27;1.40;;;8.10;92.60;;;;;;5109284;28;20828;-74
2021/05/07 03:02:56;;;;;;;4.63;1.50;;;8.10;92.90;;;;;;5112113;28;20198;-73
2021/05/07 03:05:22;;;;;;;3.80;1.63;;;8.10;92.90;;;;;;5112817;28;20186;-74
2021/05/07 03:07:48;;;;;;;10.03;1.50;;;8.10;93.10;;;;;;5098408;28;20183;-72
2021/05/07 03:10:13;;;;;;;3.30;1.50;;;8.10;93.20;;;;;;5112697;27;20186;-71
2021/05/07 03:12:39;;;;;;;3.17;1.20;;;8.00;93.50;;;;;;5114656;27;20670;-71
2021/05/07 03:15:06;;;;;;;3.77;1.63;;;8.00;94.00;;;;;;5114423;28;20215;-72
2021/05/07 03:17:32;;;;;;;4.23;1.30;;;7.90;94.40;;;;;;5102975;28;20229;-74
2021/05/07 03:19:58;;;;;;;2.80;1.20;;;7.80;94.50;;;;;;5116654;28;20426;-71
2021/05/07 03:22:24;;;;;;;3.30;1.03;;;7.80;94.80;;;;;;5114236;28;20195;-72
2021/05/07 03:24:49;;;;;;;4.03;1.43;;;7.80;95.10;;;;;;5118731;28;20178;-72
2021/05/07 03:27:17;;;;;;;3.07;1.20;;;7.90;95.20;;;;;;5122705;28;20212;-72
2021/05/07 03:29:42;;;;;;;2.90;1.20;;;7.80;94.80;;;;;;5116460;28;20241;-72
2021/05/07 03:32:08;;;;;;;3.40;1.30;;;7.80;94.90;;;;;;5112270;28;20847;-75
2021/05/07 03:34:34;;;;;;;3.03;1.40;;;7.70;95.10;;;;;;5111607;28;20190;-73
2021/05/07 03:37:00;;;;;;;3.33;1.60;;;7.70;95.20;;;;;;5096067;28;20219;-72
2021/05/07 03:39:25;;;;;;;3.23;1.53;;;7.70;95.30;;;;;;5112040;28;20178;-75
2021/05/07 03:41:51;;;;;;;3.63;1.40;;;7.70;95.60;;;;;;5110625;28;21293;-73
2021/05/07 03:44:17;;;;;;;4.17;1.50;;;7.70;95.60;;;;;;5102056;28;20187;-73
2021/05/07 03:46:43;;;;;;;6.30;1.60;;;7.70;95.60;;;;;;5104347;28;20188;-73
2021/05/07 03:49:08;;;;;;;4.40;2.00;;;7.80;95.60;;;;;;5091234;28;20656;-71
2021/05/07 03:51:34;;;;;;;3.83;1.73;;;7.70;95.30;;;;;;5093349;28;20443;-72
2021/05/07 03:54:00;;;;;;;4.40;2.07;;;7.70;95.60;;;;;;5098708;28;20293;-71
2021/05/07 03:56:26;;;;;;;4.70;1.80;;;7.70;95.50;;;;;;5109572;28;20190;-71
2021/05/07 03:58:51;;;;;;;3.90;1.70;;;7.70;95.40;;;;;;5110924;28;20754;-73
2021/05/07 04:01:17;;;;;;;4.50;2.13;;;7.70;95.20;;;;;;5110683;28;20190;-73
2021/05/07 04:03:43;;;;;;;3.40;1.87;;;7.70;95.30;;;;;;5110658;28;20212;-71
2021/05/07 04:06:15;;;;;;;3.60;1.80;;;7.70;95.50;;;;;;5110343;28;20524;-71
2021/05/07 04:08:42;;;;;;;5.53;2.10;;;7.70;94.90;;;;;;5110184;28;20190;-72
2021/05/07 04:11:19;;;;;;;4.23;2.10;;;7.70;94.60;;;;;;5111784;28;21060;-71
2021/05/07 04:13:46;;;;;;;4.10;2.13;;;7.70;94.80;;;;;;5099592;28;20459;-72
2021/05/07 04:16:11;;;;;;;4.20;2.00;;;7.60;94.90;;;;;;5108146;28;20424;-72
2021/05/07 04:18:38;;;;;;;4.00;1.90;;;7.60;94.90;;;;;;5111357;28;20498;-72
2021/05/07 04:21:04;;;;;;;5.30;2.07;;;7.50;94.70;;;;;;5110743;28;20927;-74
2021/05/07 04:23:30;;;;;;;4.43;2.00;;;7.50;95.00;;;;;;5112124;28;20445;-72
2021/05/07 04:25:56;;;;;;;6.03;2.37;;;7.40;95.30;;;;;;5112000;28;20416;-72
2021/05/07 04:28:22;;;;;;;6.70;1.97;;;7.40;95.40;;;;;;5112645;28;20440;-73
2021/05/07 04:30:48;;;;;;;3.67;1.70;;;7.50;95.70;;;;;;5113104;28;20216;-73
2021/05/07 04:33:14;;;;;;;3.50;1.80;;;7.50;96.00;;;;;;5111357;28;20535;-75
2021/05/07 04:35:40;;;;;;;4.37;1.90;;;7.40;96.00;;;;;;5111160;28;20515;-74
2021/05/07 04:38:05;;;;;;;5.43;2.07;;;7.40;96.00;;;;;;5112176;28;20210;-73
2021/05/07 04:40:32;;;;;;;4.40;1.70;;;7.40;96.00;;;;;;5112543;28;20235;-72
2021/05/07 04:43:01;;;;;;;3.40;1.93;;;7.40;95.50;;;;;;5101237;28;20222;-72
2021/05/07 04:45:31;;;;;;;3.57;1.60;;;7.30;95.70;;;;;;5103878;28;20482;-73
2021/05/07 04:47:57;;;;;;;5.20;1.93;;;7.30;96.20;;;;;;5092623;28;20425;-74
2021/05/07 04:50:23;;;;;;;3.70;1.67;;;7.30;96.30;;;;;;5097350;28;20920;-71
2021/05/07 04:52:50;;;;;;;3.83;1.90;;;7.30;96.20;;;;;;5101094;28;20446;-73
2021/05/07 04:55:16;;;;;;;4.10;1.83;;;7.30;96.10;;;;;;5098930;28;20428;-73
2021/05/07 04:57:42;;;;;;;3.77;1.70;;;7.30;96.40;;;;;;5113113;28;20938;-72
2021/05/07 05:00:08;;;;;;;3.67;1.50;;;7.20;96.50;;;;;;5111969;28;20416;-74
2021/05/07 05:02:34;;;;;;;3.23;1.60;;;7.30;96.50;;;;;;5099631;28;20452;-73
2021/05/07 05:05:01;;;;;;;5.90;1.77;;;7.30;96.50;;;;;;5110883;28;20470;-71
2021/05/07 05:07:27;;;;;;;3.60;1.60;;;7.40;96.40;;;;;;5113797;28;20432;-73
2021/05/07 05:09:52;;;;;;;3.90;1.80;;;7.40;96.30;;;;;;5112830;28;20428;-73
2021/05/07 05:12:18;;;;;;;2.70;1.40;;;7.20;95.90;;;;;;5112930;28;20206;-71
2021/05/07 05:14:44;;;;;;;3.63;1.50;;;7.10;96.00;;;;;;5106888;28;20194;-71
2021/05/07 05:17:10;;;;;;;3.60;1.43;;;7.20;96.50;;;;;;5114018;28;20555;-70
2021/05/07 05:19:35;;;;;;;2.77;1.33;;;7.20;95.90;;;;;;5114135;28;20622;-74
2021/05/07 05:22:01;;;;;;;3.73;1.30;;;7.20;95.70;;;;;;5112729;28;20182;-71
2021/05/07 05:24:27;;;;;;;3.73;1.80;;;7.10;95.60;;;;;;5115118;28;20300;-72
2021/05/07 05:26:53;;;;;;;3.60;1.70;;;7.10;95.40;;;;;;5102367;28;20595;-71
2021/05/07 05:29:18;;;;;;;2.63;1.40;;;7.10;95.50;;;;;;5113030;28;20195;-73
2021/05/07 05:31:44;;;;;;;4.13;1.73;;;7.10;95.70;;;;;;5109235;28;20428;-74
2021/05/07 05:34:10;;;;;;;4.80;1.77;;;7.10;95.50;;;;;;5096482;28;20202;-74
2021/05/07 05:36:36;;;;;;;5.00;2.03;;;7.20;95.60;;;;;;5110570;28;20196;-73
2021/05/07 05:39:02;;;;;;;3.90;1.90;;;7.10;95.30;;;;;;5109178;28;20210;-74
2021/05/07 05:41:28;;;;;;;3.83;1.80;;;7.10;95.10;;;;;;5110481;28;20229;-73
2021/05/07 05:43:53;;;;;;;6.43;2.50;;;7.20;95.20;;;;;;5109525;28;20964;-72
2021/05/07 05:46:19;;;;;;;4.73;2.23;;;7.20;95.50;;;;;;5110454;28;20526;-73
2021/05/07 05:48:45;;;;;;;5.43;2.80;;;7.30;95.50;;;;;;5109701;28;20186;-72
2021/05/07 05:51:11;;;;;;;5.80;3.07;;;7.30;94.50;;;;;;5110340;28;20186;-73
2021/05/07 05:53:36;;;;;;;4.93;2.63;;;7.30;94.20;;;;;;5096472;28;20258;-73
2021/05/07 05:56:03;;;;;;;5.97;2.90;;;7.40;93.90;;;;;;5110618;28;20190;-72
2021/05/07 05:58:32;;;;;;;7.10;3.47;;;7.30;93.20;;;;;;5103852;28;20206;-73
2021/05/07 06:00:59;;;;;;;5.83;2.67;;;7.20;93.10;;;;;;5103053;28;20432;-71
2021/05/07 06:03:25;;;;;;;9.00;3.57;;;7.20;93.20;;;;;;5109525;28;20973;-73
2021/05/07 06:05:51;;;;;;;7.63;3.60;;;7.20;93.10;;;;;;5112690;28;20412;-72
2021/05/07 06:08:17;;;;;;;9.53;3.83;;;7.40;93.10;;;;;;5116150;28;20420;-72
2021/05/07 06:10:43;;;;;;;8.27;4.23;;;7.40;92.60;;;;;;5119404;28;20459;-72
2021/05/07 06:13:08;;;;;;;7.97;3.80;;;7.40;92.60;;;;;;5116934;28;20198;-73
2021/05/07 06:15:34;;;;;;;9.40;3.70;;;7.50;92.50;;;;;;5112721;28;20190;-73
2021/05/07 06:18:00;;;;;;;6.73;3.77;;;7.50;92.50;;;;;;5108868;28;20244;-72
2021/05/07 06:20:25;;;;;;;6.90;3.60;;;7.60;92.70;;;;;;5110291;28;20500;-72
2021/05/07 06:22:51;;;;;;;7.67;4.00;;;7.70;93.20;;;;;;5109035;28;20706;-72
2021/05/07 06:25:20;;;;;;;7.33;3.83;;;7.70;92.30;;;;;;5097660;28;20225;-73
2021/05/07 06:27:46;;;;;;;8.40;4.13;;;7.70;92.30;;;;;;5096927;28;20674;-72
2021/05/07 06:30:14;;;;;;;7.87;4.63;;;7.70;92.30;;;;;;5096182;28;20429;-73
2021/05/07 06:32:41;;;;;;;8.50;4.50;;;7.80;92.50;;;;;;5092211;28;20300;-73
2021/05/07 06:35:07;;;;;;;8.87;5.10;;;7.80;92.50;;;;;;5102038;28;20428;-74
2021/05/07 06:37:33;;;;;;;8.60;4.73;;;7.70;92.30;;;;;;5111777;28;20505;-71
2021/05/07 06:40:00;;;;;;;9.33;4.37;;;7.80;92.20;;;;;;5101602;28;20441;-73
2021/05/07 06:42:27;;;;;;;11.50;4.77;;;7.90;91.80;;;;;;5106430;28;20465;-71
2021/05/07 06:44:52;;;;;;;8.87;4.73;;;7.90;91.50;;;;;;5095134;28;20436;-72
2021/05/07 06:47:18;;;;;;;9.60;4.57;;;7.90;91.40;;;;;;5108518;28;20500;-71
2021/05/07 06:49:44;;;;;;;11.00;5.63;;;7.70;91.50;;;;;;5094340;28;20237;-73
2021/05/07 06:52:10;;;;;;;10.53;5.60;;;7.70;91.70;;;;;;5100953;28;20256;-72
2021/05/07 06:54:36;;;;;;;11.90;6.13;;;7.70;92.10;;;;;;5113282;28;20447;-72
2021/05/07 06:57:02;;;;;;;12.20;6.30;;;7.70;91.60;;;;;;5115183;28;20191;-72
2021/05/07 06:59:29;;;;;;;12.13;5.70;;;7.80;91.40;;;;;;5117675;28;20800;-72
2021/05/07 07:01:56;;;;;;;11.40;6.80;;;7.70;91.40;;;;;;5117757;28;20459;-73
2021/05/07 07:04:22;;;;;;;10.10;5.80;;;7.60;91.40;;;;;;5118529;28;20443;-72
2021/05/07 07:06:48;;;;;;;13.30;6.00;;;7.70;91.50;;;;;;5106619;28;21144;-71
2021/05/07 07:09:15;;;;;;;10.17;5.27;;;7.40;91.80;;;;;;5122893;28;20443;-71
2021/05/07 07:11:41;;;;;;;14.93;7.10;;;7.50;92.30;;;;;;5120509;28;20182;-71
2021/05/07 07:14:07;;;;;;;11.57;6.40;;;7.50;91.80;;;;;;5115614;28;20436;-72
2021/05/07 07:16:33;;;;;;;16.50;7.00;;;7.60;91.90;;;;;;5114088;28;20488;-72
2021/05/07 07:19:00;;;;;;;12.67;6.70;;;7.60;91.90;;;;;;5112128;28;20492;-72
2021/05/07 07:21:26;;;;;;;13.10;6.93;;;7.60;91.90;;;;;;5111673;28;20985;-72
2021/05/07 07:23:52;;;;;;;12.27;7.23;;;7.70;92.10;;;;;;5112549;28;20479;-72
2021/05/07 07:26:17;;;;;;;12.57;6.80;;;7.60;92.00;;;;;;5111245;28;20187;-73
2021/05/07 07:28:47;;;;;;;13.17;7.20;;;7.60;92.00;;;;;;5096738;28;20647;-73
2021/05/07 07:31:12;;;;;;;13.77;7.40;;;7.60;91.80;;;;;;5092078;28;20505;-71
2021/05/07 07:33:38;;;;;;;12.30;7.40;;;7.60;92.10;;;;;;5092248;28;20692;-72
2021/05/07 07:36:04;;;;;;;13.27;6.80;;;7.60;92.60;;;;;;5092289;28;20183;-72
2021/05/07 07:38:30;;;;;;;13.20;7.10;;;7.70;92.90;;;;;;5091663;28;20207;-72
2021/05/07 07:40:56;;;;;;;13.13;6.90;;;7.90;92.30;;;;;;5092419;28;20417;-72
2021/05/07 07:43:22;;;;;;;12.30;7.10;;;7.70;91.60;;;;;;5104978;28;20209;-73
2021/05/07 07:45:48;;;;;;;14.73;7.50;;;7.70;91.60;;;;;;5099386;28;20412;-73
2021/05/07 07:48:15;;;;;;;21.43;7.77;;;7.60;91.50;;;;;;5096806;28;20409;-73
2021/05/07 07:50:41;;;;;;;20.70;7.93;;;7.60;91.00;;;;;;5097822;28;20438;-73
2021/05/07 07:53:07;;;;;;;13.70;7.47;;;7.60;90.90;;;;;;5111417;28;20447;-73
2021/05/07 07:55:33;;;;;;;12.60;6.23;;;7.70;91.20;;;;;;5111701;28;20791;-72
2021/05/07 07:57:59;;;;;;;11.60;6.93;;;8.00;91.30;;;;;;5111970;28;20214;-72
2021/05/07 08:00:25;;;;;;;13.60;6.90;;;8.00;89.90;;;;;;5111223;28;20939;-74
2021/05/07 08:02:51;;;;;;;14.20;7.30;;;7.90;89.30;;;;;;5110690;28;20206;-72
2021/05/07 08:05:17;;;;;;;15.70;7.80;;;8.10;89.60;;;;;;5111965;28;20415;-71
2021/05/07 08:07:45;;;;;;;15.33;7.87;;;8.00;89.30;;;;;;5098866;28;20183;-73
2021/05/07 08:10:12;;;;;;;13.50;6.70;;;7.90;89.60;;;;;;5112777;28;20424;-73
2021/05/07 08:12:37;;;;;;;14.70;6.80;;;8.00;89.90;;;;;;5112315;28;20519;-72
2021/05/07 08:15:04;;;;;;;9.87;5.70;;;7.80;88.60;;;;;;5114199;28;20958;-72
2021/05/07 08:17:31;;;;;;;13.40;7.27;;;8.10;89.20;;;;;;5114656;28;20202;-71
2021/05/07 08:19:56;;;;;;;13.20;7.47;;;8.50;88.70;;;;;;5115643;28;20446;-72
2021/05/07 08:22:22;;;;;;;12.43;7.17;;;8.70;87.40;;;;;;5113291;28;20441;-71
2021/05/07 08:24:48;;;;;;;11.73;6.87;;;8.70;85.20;;;;;;5111776;28;20202;-72
2021/05/07 08:27:14;;;;;;;8.90;5.40;;;8.90;84.30;;;;;;5112128;28;20673;-71
2021/05/07 08:29:39;;;;;;;11.23;6.20;;;9.10;83.40;;;;;;5111340;28;20202;-71
2021/05/07 08:32:06;;;;;;;11.77;7.00;;;9.10;83.10;;;;;;5099847;28;20500;-73
2021/05/07 08:34:31;;;;;;;11.77;6.50;;;9.30;83.70;;;;;;5112983;28;20178;-73
2021/05/07 08:36:57;;;;;;;11.77;6.50;;;9.40;82.50;;;;;;5112854;28;20934;-72
2021/05/07 08:39:23;;;;;;;10.30;5.50;;;9.30;80.60;;;;;;5112732;28;20189;-73
2021/05/07 08:41:49;;;;;;;8.77;5.73;;;9.20;78.00;;;;;;5119541;28;20185;-72
2021/05/07 08:44:16;;;;;;;8.07;5.60;;;8.90;77.00;;;;;;5117261;28;20471;-70
2021/05/07 08:46:43;;;;;;;12.97;5.70;;;9.00;78.30;;;;;;5125617;28;20856;-72
2021/05/07 08:49:11;;;;;;;7.50;5.07;;;9.10;78.30;;;;;;5124892;28;20428;-72
2021/05/07 08:51:39;;;;;;;9.53;5.20;;;9.40;77.70;;;;;;5112515;28;20932;-72
2021/05/07 08:54:07;;;;;;;10.77;6.27;;;9.40;76.80;;;;;;5113585;28;20452;-72
2021/05/07 08:56:32;;;;;;;10.30;5.30;;;9.40;78.00;;;;;;5112314;28;20424;-73
2021/05/07 08:58:58;;;;;;;8.50;5.23;;;9.60;76.10;;;;;;5100912;28;20469;-73
2021/05/07 09:01:24;;;;;;;8.57;4.50;;;9.70;75.90;;;;;;5105984;28;20204;-71
2021/05/07 09:03:49;;;;;;;7.70;5.10;;;9.50;73.90;;;;;;5109304;28;20290;-71
2021/05/07 09:06:23;;;;;;;7.03;4.90;;;9.50;72.40;;;;;;5109056;28;20187;-72
2021/05/07 09:08:50;;;;;;;9.00;4.33;;;9.80;73.20;;;;;;5098228;28;20223;-73
2021/05/07 09:11:17;;;;;;;7.60;4.10;;;9.90;68.90;;;;;;5090016;28;20435;-73
2021/05/07 09:13:43;;;;;;;8.13;4.53;;;10.10;68.60;;;;;;5089797;28;20494;-72
2021/05/07 09:16:11;;;;;;;10.70;6.33;;;10.20;67.50;;;;;;5095999;28;20953;-72
2021/05/07 09:18:47;;;;;;;8.73;5.47;;;9.70;67.90;;;;;;5089285;28;20547;-73
2021/05/07 09:21:14;;;;;;;6.93;4.90;;;9.70;69.20;;;;;;5090457;28;20540;-73
2021/05/07 09:23:47;;;;;;;16.50;8.00;;;9.80;68.90;;;;;;5090561;28;20531;-72
2021/05/07 09:26:14;;;;;;;10.00;4.67;;;10.00;67.70;;;;;;5103563;28;20443;-72
2021/05/07 09:28:51;;;;;;;8.80;5.03;;;9.80;65.70;;;;;;5103564;28;21276;-72
2021/05/07 09:31:20;;;;;;;6.53;4.50;;;9.80;66.40;;;;;;5102986;28;20427;-73
2021/05/07 09:33:48;;;;;;;8.80;4.67;;;10.00;63.70;;;;;;5106089;28;20432;-71
2021/05/07 09:36:29;;;;;;;6.43;4.50;;;10.00;63.80;;;;;;5103503;28;20423;-73
2021/05/07 09:38:57;;;;;;;8.70;5.00;;;10.10;63.80;;;;;;5105710;28;20476;-72
2021/05/07 09:41:23;;;;;;;10.23;5.30;;;10.20;62.60;;;;;;5104345;28;20799;-72
2021/05/07 09:43:49;;;;;;;11.20;5.37;;;10.20;62.30;;;;;;5096336;28;20932;-72
2021/05/07 09:46:14;;;;;;;12.17;4.77;;;10.20;63.40;;;;;;5093489;28;20444;-73
2021/05/07 09:48:41;;;;;;;7.63;5.00;;;10.20;62.90;;;;;;5089992;28;20194;-73
2021/05/07 09:51:08;;;;;;;11.13;5.43;;;10.30;60.70;;;;;;5089498;28;20271;-73
2021/05/07 09:53:36;;;;;;;8.33;3.70;;;10.30;59.20;;;;;;5096853;28;20584;-73
2021/05/07 09:56:13;;;;;;;6.43;4.10;;;10.30;57.70;;;;;;5109688;28;20420;-72
2021/05/07 09:58:39;;;;;;;6.43;4.30;;;10.60;56.20;;;;;;5087115;28;20529;-72
2021/05/07 10:01:06;;;;;;;6.70;4.27;;;10.80;56.00;;;;;;5089034;28;20421;-72
2021/05/07 10:03:33;;;;;;;7.67;4.37;;;11.10;53.60;;;;;;5108912;28;20469;-74
2021/05/07 10:06:00;;;;;;;6.10;4.53;;;11.40;52.60;;;;;;5109679;28;20461;-72
2021/05/07 10:08:26;;;;;;;5.33;3.63;;;11.80;48.20;;;;;;5107721;28;20428;-72
2021/05/07 10:10:57;;;;;;;5.30;4.17;;;12.10;48.70;;;;;;5096472;28;20425;-72
2021/05/07 10:13:32;;;;;;;5.90;3.77;;;12.30;47.90;;;;;;5102876;28;20827;-73
2021/05/07 10:16:05;;;;;;;7.63;4.13;;;12.30;49.70;;;;;;5112586;28;20427;-74
2021/05/07 10:18:33;;;;;;;6.80;4.33;;;11.60;52.20;;;;;;5106631;28;21164;-74
2021/05/07 10:21:04;;;;;;;7.50;4.47;;;11.80;50.70;;;;;;5104219;28;20958;-73
2021/05/07 10:23:31;;;;;;;6.07;3.97;;;11.80;50.60;;;;;;5113276;28;20436;-73
2021/05/07 10:26:00;;;;;;;6.70;3.70;;;11.60;50.20;;;;;;5113683;28;20439;-72
2021/05/07 10:28:28;;;;;;;7.07;4.03;;;11.10;51.70;;;;;;5112864;28;20797;-72
2021/05/07 10:31:08;;;;;;;8.20;4.37;;;11.40;51.40;;;;;;5111986;28;20428;-73
2021/05/07 10:33:34;;;;;;;6.70;4.17;;;11.30;50.90;;;;;;5112640;28;20436;-73
2021/05/07 10:36:01;;;;;;;7.80;4.90;;;11.00;49.90;;;;;;5113781;28;20469;-72
2021/05/07 10:38:27;;;;;;;7.60;3.80;;;11.10;51.30;;;;;;5113037;28;20547;-73
2021/05/07 10:41:05;;;;;;;6.37;3.80;;;11.10;51.80;;;;;;5113014;28;20515;-72
2021/05/07 10:43:41;;;;;;;8.53;4.70;;;11.40;51.30;;;;;;5115038;28;20220;-73
2021/05/07 10:46:23;;;;;;;6.90;3.60;;;11.60;50.70;;;;;;5127585;28;20443;-72
2021/05/07 10:48:59;;;;;;;5.33;3.73;;;11.60;49.50;;;;;;5117899;28;20975;-74
2021/05/07 10:51:27;;;;;;;8.40;4.10;;;11.30;52.90;;;;;;5116503;28;20445;-74
2021/05/07 10:54:10;;;;;;;6.90;4.30;;;11.20;52.10;;;;;;5118591;28;20444;-72
2021/05/07 10:56:41;;;;;;;7.50;4.70;;;11.20;52.10;;;;;;5119136;28;20534;-71
2021/05/07 10:59:14;;;;;;;8.20;4.30;;;11.00;52.10;;;;;;5113193;28;20553;-73
2021/05/07 11:01:41;;;;;;;6.20;3.97;;;11.30;52.60;;;;;;5112140;28;20427;-72
2021/05/07 11:04:10;;;;;;;6.90;4.27;;;11.40;48.70;;;;;;5114860;28;20974;-74
2021/05/07 11:06:44;;;;;;;8.63;4.13;;;11.70;47.00;;;;;;5113679;28;20424;-72
2021/05/07 11:09:13;;;;;;;6.60;4.10;;;11.70;46.30;;;;;;5099275;28;20424;-73
2021/05/07 11:11:39;;;;;;;5.30;3.57;;;11.70;47.10;;;;;;5099053;28;20412;-74
2021/05/07 11:14:14;;;;;;;6.27;4.03;;;11.90;47.30;;;;;;5099415;28;20460;-74
2021/05/07 11:16:42;;;;;;;9.50;4.07;;;12.30;46.30;;;;;;5103493;28;20228;-73
2021/05/07 11:19:19;;;;;;;7.47;4.23;;;12.40;46.20;;;;;;5094257;28;21043;-74
2021/05/07 11:21:53;;;;;;;6.80;4.17;;;12.30;47.00;;;;;;5100905;28;20945;-74
2021/05/07 11:24:23;;;;;;;7.20;4.30;;;12.20;47.50;;;;;;5096225;28;20550;-74
2021/05/07 11:26:49;;;;;;;6.90;3.37;;;12.60;46.90;;;;;;5099580;28;20421;-73
2021/05/07 11:29:32;;;;;;;4.77;3.20;;;12.90;43.70;;;;;;5089685;28;20445;-73
2021/05/07 11:32:11;;;;;;;5.03;3.50;;;12.90;42.70;;;;;;5092372;28;20187;-74
2021/05/07 11:34:37;;;;;;;6.10;4.07;;;12.80;43.10;;;;;;5110164;28;20432;-73
2021/05/07 11:37:03;;;;;;;12.00;4.27;;;12.40;43.80;;;;;;5098845;28;20422;-73
2021/05/07 11:39:29;;;;;;;9.23;4.27;;;12.30;45.50;;;;;;5106503;28;20182;-71
2021/05/07 11:41:54;;;;;;;5.83;3.93;;;12.20;46.30;;;;;;5112764;28;20466;-72
2021/05/07 11:44:20;;;;;;;4.67;3.60;;;12.10;46.70;;;;;;5111676;28;20186;-72
2021/05/07 11:47:07;;;;;;;6.80;3.80;;;12.00;47.10;;;;;;5093890;27;20324;-73
2021/05/07 11:49:34;;;;;;;7.57;4.47;;;11.70;48.90;;;;;;5101736;28;20178;-72
2021/05/07 11:52:00;;;;;;;5.97;3.67;;;11.90;47.80;;;;;;5109955;28;20430;-72
2021/05/07 11:54:36;;;;;;;6.50;4.00;;;12.10;49.00;;;;;;5111179;28;20432;-73
2021/05/07 11:57:02;;;;;;;5.57;3.63;;;12.20;49.30;;;;;;5106819;27;20810;-72
2021/05/07 11:59:28;;;;;;;7.03;4.47;;;12.40;49.70;;;;;;5106076;28;20496;-74
2021/05/07 12:01:53;;;;;;;9.33;4.37;;;12.20;49.10;;;;;;5100404;28;20228;-72
2021/05/07 12:04:19;;;;;;;6.03;4.10;;;12.20;49.30;;;;;;5097779;28;20674;-71
2021/05/07 12:06:45;;;;;;;4.50;3.23;;;12.00;49.70;;;;;;5094911;28;20187;-73
2021/05/07 12:09:12;;;;;;;7.30;4.47;;;12.00;50.30;;;;;;5103967;28;20413;-72
2021/05/07 12:11:39;;;;;;;5.43;4.00;;;12.10;50.20;;;;;;5103321;28;20277;-73
2021/05/07 12:14:09;;;;;;;5.10;3.73;;;12.50;48.90;;;;;;5091925;28;20448;-75
2021/05/07 12:16:35;;;;;;;6.77;4.23;;;12.40;49.40;;;;;;5106055;28;20517;-73
2021/05/07 12:19:00;;;;;;;4.80;3.40;;;12.50;48.60;;;;;;5097569;28;20984;-73
2021/05/07 12:21:26;;;;;;;4.50;3.80;;;12.50;48.50;;;;;;5105378;28;20163;-73
2021/05/07 12:23:52;;;;;;;5.57;3.23;;;12.30;49.00;;;;;;5119997;28;20469;-71
2021/05/07 12:26:20;;;;;;;5.13;3.40;;;12.30;48.70;;;;;;5102801;28;20543;-72
2021/05/07 12:28:54;;;;;;;4.80;3.77;;;12.50;46.20;;;;;;5093257;28;20441;-71
2021/05/07 12:31:29;;;;;;;6.63;3.47;;;12.20;47.50;;;;;;5100867;28;20433;-71
2021/05/07 12:33:56;;;;;;;8.80;3.50;;;12.30;46.30;;;;;;5097940;28;20986;-72
2021/05/07 12:36:24;;;;;;;4.70;3.33;;;12.20;45.40;;;;;;5093590;28;20925;-71
2021/05/07 12:38:49;;;;;;;6.10;3.60;;;12.10;45.50;;;;;;5093320;28;20484;-74
2021/05/07 12:41:24;;;;;;;8.03;3.63;;;11.90;45.40;;;;;;5092164;28;20902;-71
2021/05/07 12:43:50;;;;;;;5.60;2.87;;;11.80;46.30;;;;;;5095590;28;20206;-72
2021/05/07 12:46:18;;;;;;;6.87;3.40;;;11.70;46.20;;;;;;5098095;28;20520;-74
2021/05/07 12:48:47;;;;;;;5.07;3.30;;;11.60;47.50;;;;;;5089145;28;20433;-73
2021/05/07 12:51:14;;;;;;;5.07;3.10;;;11.80;48.20;;;;;;5092838;28;20437;-72
2021/05/07 12:53:42;;;;;;;6.03;3.57;;;12.20;47.30;;;;;;5110166;28;20475;-73